createdAt,value
2023-01-03T00:02:01.322Z,8.07
2023-01-03T00:04:28.405Z,8.10
2023-01-03T00:06:55.382Z,8.14
2023-01-03T00:09:23.935Z,8.16
2023-01-03T00:12:00.430Z,8.21
2023-01-03T00:14:29.556Z,8.24
2023-01-03T00:16:58.053Z,8.23
2023-01-03T00:19:26.366Z,8.21
2023-01-03T00:21:53.237Z,8.23
2023-01-03T00:24:20.111Z,8.21
2023-01-03T00:26:47.290Z,8.19
2023-01-03T00:29:14.843Z,8.18
2023-01-03T00:31:42.054Z,8.17
2023-01-03T00:34:09.070Z,8.18
2023-01-03T00:36:36.503Z,8.21
2023-01-03T00:39:03.868Z,8.22
2023-01-03T00:41:31.031Z,8.22
2023-01-03T00:43:58.349Z,8.27
2023-01-03T00:46:25.348Z,8.29
2023-01-03T00:48:52.366Z,8.31
2023-01-03T00:51:20.980Z,8.37
2023-01-03T00:53:48.710Z,8.39
2023-01-03T00:56:16.540Z,8.42
2023-01-03T00:58:43.710Z,8.47
2023-01-03T01:01:12.505Z,8.48
2023-01-03T01:03:53.876Z,8.47
2023-01-03T01:06:22.582Z,8.51
2023-01-03T01:08:50.345Z,8.53
2023-01-03T01:11:17.980Z,8.56
2023-01-03T01:13:45.450Z,8.61
2023-01-03T01:16:13.875Z,8.63
2023-01-03T01:18:41.976Z,8.63
2023-01-03T01:21:10.307Z,8.65
2023-01-03T01:23:38.455Z,8.65
2023-01-03T01:26:06.342Z,8.65
2023-01-03T01:28:33.225Z,8.67
2023-01-03T01:31:01.151Z,8.68
2023-01-03T01:33:28.200Z,8.68
2023-01-03T01:35:55.225Z,8.70
2023-01-03T01:38:22.163Z,8.70
2023-01-03T01:40:49.029Z,8.71
2023-01-03T01:43:28.361Z,8.69
2023-01-03T01:45:55.291Z,8.69
2023-01-03T01:48:22.701Z,8.69
2023-01-03T01:50:52.361Z,8.67
2023-01-03T01:53:20.462Z,8.68
2023-01-03T01:55:49.793Z,8.67
2023-01-03T01:58:16.943Z,8.66
2023-01-03T02:00:44.678Z,8.67
2023-01-03T02:03:12.277Z,8.67
2023-01-03T02:05:42.341Z,8.66
2023-01-03T02:08:09.202Z,8.66
2023-01-03T02:10:39.222Z,8.65
2023-01-03T02:13:12.428Z,8.66
2023-01-03T02:15:48.815Z,8.65
2023-01-03T02:18:25.562Z,8.66
2023-01-03T02:21:01.509Z,8.67
2023-01-03T02:23:28.519Z,8.69
2023-01-03T02:26:04.581Z,8.68
2023-01-03T02:28:40.582Z,8.71
2023-01-03T02:31:13.198Z,8.72
2023-01-03T02:33:46.422Z,8.73
2023-01-03T02:36:13.549Z,8.75
2023-01-03T02:38:49.561Z,8.75
2023-01-03T02:41:24.321Z,8.75
2023-01-03T02:43:56.259Z,8.76
2023-01-03T02:46:24.426Z,8.79
2023-01-03T02:48:57.766Z,8.82
2023-01-03T02:51:29.396Z,8.84
2023-01-03T02:53:58.395Z,8.85
2023-01-03T02:56:27.830Z,8.88
2023-01-03T02:58:57.125Z,8.89
2023-01-03T03:01:25.503Z,8.89
2023-01-03T03:03:52.920Z,8.90
2023-01-03T03:06:24.164Z,8.90
2023-01-03T03:08:51.020Z,8.92
2023-01-03T03:11:27.382Z,8.92
2023-01-03T03:13:58.701Z,8.92
2023-01-03T03:16:37.374Z,8.93
2023-01-03T03:19:13.961Z,8.91
2023-01-03T03:21:50.403Z,8.91
2023-01-03T03:24:29.323Z,8.91
2023-01-03T03:26:57.297Z,8.88
2023-01-03T03:29:26.282Z,8.86
2023-01-03T03:31:54.796Z,8.83
2023-01-03T03:34:24.666Z,8.79
2023-01-03T03:37:00.588Z,8.78
2023-01-03T03:39:38.471Z,8.77
2023-01-03T03:42:26.385Z,8.77
2023-01-03T03:45:05.403Z,8.75
2023-01-03T03:47:32.431Z,8.74
2023-01-03T03:50:02.973Z,8.73
2023-01-03T03:52:32.238Z,8.71
2023-01-03T03:55:03.483Z,8.70
2023-01-03T03:57:33.788Z,8.70
2023-01-03T04:00:06.991Z,8.68
2023-01-03T04:02:35.521Z,8.66
2023-01-03T04:05:06.267Z,8.67
2023-01-03T04:07:33.343Z,8.65
2023-01-03T04:10:00.205Z,8.62
2023-01-03T04:12:27.045Z,8.60
2023-01-03T04:14:53.963Z,8.59
2023-01-03T04:17:20.830Z,8.60
2023-01-03T04:19:47.782Z,8.60
2023-01-03T04:22:14.609Z,8.60
2023-01-03T04:24:41.503Z,8.58
2023-01-03T04:27:08.329Z,8.58
2023-01-03T04:29:39.126Z,8.61
2023-01-03T04:32:06.948Z,8.61
2023-01-03T04:34:33.786Z,8.61
2023-01-03T04:37:00.623Z,8.62
2023-01-03T04:39:27.511Z,8.60
2023-01-03T04:41:54.426Z,8.59
2023-01-03T04:44:21.384Z,8.59
2023-01-03T04:46:52.760Z,8.59
2023-01-03T04:49:20.810Z,8.58
2023-01-03T04:51:47.647Z,8.56
2023-01-03T04:54:14.490Z,8.56
2023-01-03T04:56:41.508Z,8.56
2023-01-03T04:59:08.442Z,8.55
2023-01-03T05:01:35.454Z,8.56
2023-01-03T05:04:02.780Z,8.57
2023-01-03T05:06:29.889Z,8.56
2023-01-03T05:08:57.064Z,8.57
2023-01-03T05:11:23.921Z,8.61
2023-01-03T05:13:50.788Z,8.63
2023-01-03T05:16:17.731Z,8.65
2023-01-03T05:18:44.731Z,8.67
2023-01-03T05:21:25.323Z,8.67
2023-01-03T05:24:01.450Z,8.66
2023-01-03T05:26:28.398Z,8.63
2023-01-03T05:28:55.544Z,8.63
2023-01-03T05:31:22.488Z,8.65
2023-01-03T05:33:49.570Z,8.67
2023-01-03T05:36:16.840Z,8.67
2023-01-03T05:38:43.820Z,8.68
2023-01-03T05:41:13.193Z,8.68
2023-01-03T05:43:40.124Z,8.69
2023-01-03T05:46:07.127Z,8.71
2023-01-03T05:48:34.081Z,8.73
2023-01-03T05:51:00.953Z,8.74
2023-01-03T05:53:27.802Z,8.75
2023-01-03T05:55:54.664Z,8.75
2023-01-03T05:58:21.593Z,8.75
2023-01-03T06:00:48.480Z,8.77
2023-01-03T06:03:15.360Z,8.79
2023-01-03T06:05:49.554Z,8.80
2023-01-03T06:08:17.175Z,8.81
2023-01-03T06:10:44.159Z,8.82
2023-01-03T06:13:11.192Z,8.83
2023-01-03T06:15:38.061Z,8.83
2023-01-03T06:18:05.077Z,8.86
2023-01-03T06:20:31.960Z,8.88
2023-01-03T06:22:58.838Z,8.89
2023-01-03T06:25:25.726Z,8.90
2023-01-03T06:27:52.598Z,8.91
2023-01-03T06:30:19.603Z,8.92
2023-01-03T06:32:46.603Z,8.94
2023-01-03T06:35:13.445Z,8.95
2023-01-03T06:37:40.319Z,8.95
2023-01-03T06:40:07.846Z,8.96
2023-01-03T06:42:44.528Z,8.98
2023-01-03T06:45:22.580Z,8.99
2023-01-03T06:47:59.358Z,9.00
2023-01-03T06:50:35.443Z,8.99
2023-01-03T06:53:11.524Z,8.98
2023-01-03T06:55:38.481Z,8.99
2023-01-03T06:58:05.331Z,8.98
2023-01-03T07:00:32.452Z,8.97
2023-01-03T07:02:59.637Z,8.95
2023-01-03T07:05:28.159Z,8.92
2023-01-03T07:07:55.333Z,8.91
2023-01-03T07:10:22.191Z,8.92
2023-01-03T07:12:58.414Z,8.93
2023-01-03T07:15:25.342Z,8.94
2023-01-03T07:17:52.165Z,8.93
2023-01-03T07:20:19.092Z,8.93
2023-01-03T07:22:45.945Z,8.92
2023-01-03T07:25:12.806Z,8.94
2023-01-03T07:27:39.671Z,8.98
2023-01-03T07:30:06.925Z,9.03
2023-01-03T07:32:33.891Z,9.05
2023-01-03T07:35:00.924Z,9.10
2023-01-03T07:37:27.765Z,9.14
2023-01-03T07:39:54.733Z,9.17
2023-01-03T07:42:32.189Z,9.21
2023-01-03T07:44:59.071Z,9.25
2023-01-03T07:47:25.927Z,9.30
2023-01-03T07:49:52.841Z,9.32
2023-01-03T07:52:19.674Z,9.38
2023-01-03T07:54:46.662Z,9.39
2023-01-03T07:57:15.082Z,9.42
2023-01-03T07:59:41.903Z,9.45
2023-01-03T08:02:08.999Z,9.48
2023-01-03T08:04:35.960Z,9.53
2023-01-03T08:07:03.062Z,9.58
2023-01-03T08:09:39.611Z,9.64
2023-01-03T08:12:17.264Z,9.68
2023-01-03T08:14:44.644Z,9.74
2023-01-03T08:17:11.555Z,9.81
2023-01-03T08:19:45.147Z,9.86
2023-01-03T08:22:12.515Z,9.94
2023-01-03T08:24:39.499Z,10.00
2023-01-03T08:27:06.370Z,10.05
2023-01-03T08:29:33.248Z,10.11
2023-01-03T08:32:03.177Z,10.17
2023-01-03T08:34:31.897Z,10.20
2023-01-03T08:37:02.050Z,10.26
2023-01-03T08:39:32.963Z,10.32
2023-01-03T08:42:02.700Z,10.33
2023-01-03T08:44:29.759Z,10.40
2023-01-03T08:46:58.436Z,10.45
2023-01-03T08:49:25.524Z,10.52
2023-01-03T08:51:52.422Z,10.55
2023-01-03T08:54:19.266Z,10.61
2023-01-03T08:56:46.215Z,10.72
2023-01-03T08:59:13.213Z,10.85
2023-01-03T09:01:40.643Z,10.97
2023-01-03T09:04:07.754Z,11.08
2023-01-03T09:06:34.723Z,11.12
2023-01-03T09:09:09.291Z,11.11
2023-01-03T09:11:36.798Z,11.12
2023-01-03T09:14:03.748Z,11.12
2023-01-03T09:16:30.696Z,11.13
2023-01-03T09:18:58.214Z,11.14
2023-01-03T09:21:25.185Z,11.14
2023-01-03T09:23:52.134Z,11.15
2023-01-03T09:26:19.034Z,11.17
2023-01-03T09:28:45.990Z,11.15
2023-01-03T09:31:12.957Z,11.19
2023-01-03T09:33:39.907Z,11.20
2023-01-03T09:36:07.010Z,11.23
2023-01-03T09:38:35.004Z,11.24
2023-01-03T09:41:03.241Z,11.27
2023-01-03T09:43:34.437Z,11.27
2023-01-03T09:46:02.387Z,11.30
2023-01-03T09:48:37.742Z,11.34
2023-01-03T09:51:29.729Z,11.34
2023-01-03T09:54:08.367Z,11.37
2023-01-03T09:56:44.939Z,11.36
2023-01-03T09:59:24.581Z,11.37
2023-01-03T10:02:11.593Z,11.36
2023-01-03T10:04:41.942Z,11.35
2023-01-03T10:07:19.647Z,11.36
2023-01-03T10:09:46.777Z,11.39
2023-01-03T10:12:17.245Z,11.40
2023-01-03T10:14:51.237Z,11.42
2023-01-03T10:17:27.602Z,11.41
2023-01-03T10:20:03.541Z,11.43
2023-01-03T10:22:32.213Z,11.45
2023-01-03T10:25:12.090Z,11.47
2023-01-03T10:27:44.392Z,11.46
2023-01-03T10:30:15.268Z,11.42
2023-01-03T10:32:43.303Z,11.43
2023-01-03T10:35:13.422Z,11.43
2023-01-03T10:37:40.942Z,11.42
2023-01-03T10:40:08.386Z,11.47
2023-01-03T10:42:36.629Z,11.50
2023-01-03T10:45:06.221Z,11.51
2023-01-03T10:47:33.101Z,11.54
2023-01-03T10:50:00.953Z,11.52
2023-01-03T10:52:39.189Z,11.53
2023-01-03T10:55:15.578Z,11.55
2023-01-03T10:57:44.578Z,11.52
2023-01-03T11:00:20.613Z,11.51
2023-01-03T11:02:49.114Z,11.47
2023-01-03T11:05:17.650Z,11.43
2023-01-03T11:07:45.372Z,11.44
2023-01-03T11:10:16.790Z,11.42
2023-01-03T11:12:43.732Z,11.43
2023-01-03T11:15:20.583Z,11.42
2023-01-03T11:17:54.682Z,11.43
2023-01-03T11:20:22.185Z,11.44
2023-01-03T11:22:53.279Z,11.46
2023-01-03T11:25:20.401Z,11.47
2023-01-03T11:27:48.461Z,11.44
2023-01-03T11:30:27.689Z,11.44
2023-01-03T11:33:03.569Z,11.45
2023-01-03T11:35:43.705Z,11.45
2023-01-03T11:38:19.580Z,11.48
2023-01-03T11:40:46.668Z,11.49
2023-01-03T11:43:22.782Z,11.46
2023-01-03T11:45:59.593Z,11.47
2023-01-03T11:48:28.482Z,11.49
2023-01-03T11:51:03.295Z,11.51
2023-01-03T11:53:34.705Z,11.53
2023-01-03T11:56:10.561Z,11.56
2023-01-03T11:58:46.589Z,11.51
2023-01-03T12:01:22.754Z,11.52
2023-01-03T12:03:59.643Z,11.56
2023-01-03T12:06:32.841Z,11.58
2023-01-03T12:09:06.666Z,11.58
2023-01-03T12:11:36.808Z,11.59
2023-01-03T12:14:03.910Z,11.58
2023-01-03T12:16:42.449Z,11.59
2023-01-03T12:19:19.491Z,11.61
2023-01-03T12:21:51.155Z,11.62
2023-01-03T12:24:27.510Z,11.64
2023-01-03T12:26:57.271Z,11.61
2023-01-03T12:29:24.313Z,11.59
2023-01-03T12:31:57.711Z,11.60
2023-01-03T12:34:25.091Z,11.62
2023-01-03T12:36:55.218Z,11.62
2023-01-03T12:39:33.603Z,11.63
2023-01-03T12:42:01.561Z,11.61
2023-01-03T12:44:32.890Z,11.61
2023-01-03T12:47:02.316Z,11.58
2023-01-03T12:49:35.309Z,11.60
2023-01-03T12:52:02.510Z,11.64
2023-01-03T12:54:38.593Z,11.67
2023-01-03T12:57:13.892Z,11.69
2023-01-03T12:59:44.223Z,11.71
2023-01-03T13:02:17.763Z,11.72
2023-01-03T13:04:45.744Z,11.72
2023-01-03T13:07:20.212Z,11.75
2023-01-03T13:09:56.003Z,11.78
2023-01-03T13:12:28.512Z,11.78
2023-01-03T13:14:59.011Z,11.79
2023-01-03T13:17:27.093Z,11.82
2023-01-03T13:20:03.575Z,11.79
2023-01-03T13:22:34.154Z,11.81
2023-01-03T13:25:10.524Z,11.84
2023-01-03T13:27:38.286Z,11.85
2023-01-03T13:30:18.809Z,11.81
2023-01-03T13:32:48.923Z,11.84
2023-01-03T13:35:16.059Z,11.87
2023-01-03T13:37:43.179Z,11.88
2023-01-03T13:40:27.879Z,11.89
2023-01-03T13:43:06.764Z,11.91
2023-01-03T13:45:33.844Z,11.89
2023-01-03T13:48:10.592Z,11.91
2023-01-03T13:50:38.031Z,11.92
2023-01-03T13:53:06.917Z,11.97
2023-01-03T13:55:36.403Z,12.02
2023-01-03T13:58:03.691Z,12.06
2023-01-03T14:00:31.418Z,12.09
2023-01-03T14:03:09.585Z,12.11
2023-01-03T14:05:45.645Z,12.11
2023-01-03T14:08:21.568Z,12.12
2023-01-03T14:10:59.967Z,12.11
2023-01-03T14:13:28.192Z,12.11
2023-01-03T14:16:04.667Z,12.13
2023-01-03T14:18:32.010Z,12.14
2023-01-03T14:20:59.827Z,12.14
2023-01-03T14:26:16.892Z,12.16
2023-01-03T14:28:47.828Z,12.16
2023-01-03T14:31:18.740Z,12.15
2023-01-03T14:33:55.745Z,12.17
2023-01-03T14:36:23.075Z,12.19
2023-01-03T14:38:51.429Z,12.19
2023-01-03T14:41:27.613Z,12.19
2023-01-03T14:44:03.621Z,12.19
2023-01-03T14:46:31.040Z,12.18
2023-01-03T14:49:03.108Z,12.19
2023-01-03T14:51:32.498Z,12.22
2023-01-03T14:54:00.739Z,12.21
2023-01-03T14:56:28.762Z,12.22
2023-01-03T14:58:56.131Z,12.22
2023-01-03T15:01:23.741Z,12.21
2023-01-03T15:03:52.360Z,12.20
2023-01-03T15:06:21.558Z,12.17
2023-01-03T15:08:49.586Z,12.17
2023-01-03T15:11:21.091Z,12.19
2023-01-03T15:13:48.177Z,12.21
2023-01-03T15:16:20.637Z,12.20
2023-01-03T15:18:48.363Z,12.20
2023-01-03T15:21:17.086Z,12.20
2023-01-03T15:23:46.001Z,12.19
2023-01-03T15:26:22.773Z,12.21
2023-01-03T15:28:50.852Z,12.24
2023-01-03T15:31:21.711Z,12.26
2023-01-03T15:33:58.944Z,12.26
2023-01-03T15:36:27.891Z,12.25
2023-01-03T15:38:54.917Z,12.24
2023-01-03T15:41:44.002Z,12.25
2023-01-03T15:44:11.909Z,12.27
2023-01-03T15:46:42.731Z,12.29
2023-01-03T15:49:11.081Z,12.27
2023-01-03T15:51:37.921Z,12.29
2023-01-03T15:54:10.810Z,12.31
2023-01-03T15:56:37.762Z,12.32
2023-01-03T15:59:07.471Z,12.30
2023-01-03T16:01:34.582Z,12.30
2023-01-03T16:04:01.630Z,12.30
2023-01-03T16:06:28.603Z,12.30
2023-01-03T16:08:55.511Z,12.34
2023-01-03T16:11:29.645Z,12.33
2023-01-03T16:14:03.074Z,12.37
2023-01-03T16:16:32.792Z,12.38
2023-01-03T16:18:59.912Z,12.39
2023-01-03T16:21:27.371Z,12.38
2023-01-03T16:23:54.306Z,12.37
2023-01-03T16:26:21.208Z,12.36
2023-01-03T16:28:48.350Z,12.37
2023-01-03T16:31:16.759Z,12.38
2023-01-03T16:33:44.133Z,12.41
2023-01-03T16:36:20.612Z,12.41
2023-01-03T16:38:47.609Z,12.44
2023-01-03T16:41:14.589Z,12.46
2023-01-03T16:43:41.425Z,12.42
2023-01-03T16:46:11.149Z,12.41
2023-01-03T16:48:39.350Z,12.40
2023-01-03T16:51:06.789Z,12.43
2023-01-03T16:53:37.762Z,12.44
2023-01-03T16:56:06.764Z,12.41
2023-01-03T16:58:33.688Z,12.42
2023-01-03T17:01:00.554Z,12.44
2023-01-03T17:03:27.797Z,12.44
2023-01-03T17:05:54.807Z,12.41
2023-01-03T17:08:24.542Z,12.42
2023-01-03T17:10:53.649Z,12.44
2023-01-03T17:13:25.486Z,12.44
2023-01-03T17:15:52.523Z,12.48
2023-01-03T17:18:20.214Z,12.51
2023-01-03T17:20:49.335Z,12.54
2023-01-03T17:23:16.188Z,12.54
2023-01-03T17:25:43.211Z,12.55
2023-01-03T17:28:10.822Z,12.56
2023-01-03T17:30:38.052Z,12.58
2023-01-03T17:33:05.313Z,12.59
2023-01-03T17:35:32.392Z,12.56
2023-01-03T17:38:24.453Z,12.55
2023-01-03T17:40:47.304Z,12.57
2023-01-03T17:43:19.652Z,12.56
2023-01-03T17:45:56.430Z,12.56
2023-01-03T17:48:32.414Z,12.56
2023-01-03T17:50:59.869Z,12.57
2023-01-03T17:53:26.734Z,12.57
2023-01-03T17:55:54.000Z,12.59
2023-01-03T17:58:28.045Z,12.59
2023-01-03T18:00:55.220Z,12.61
2023-01-03T18:03:22.227Z,12.61
2023-01-03T18:05:49.768Z,12.63
2023-01-03T18:08:18.606Z,12.65
2023-01-03T18:10:47.369Z,12.65
2023-01-03T18:13:23.850Z,12.66
2023-01-03T18:15:51.324Z,12.67
2023-01-03T18:18:19.534Z,12.67
2023-01-03T18:20:46.451Z,12.67
2023-01-03T18:23:18.243Z,12.66
2023-01-03T18:25:45.703Z,12.66
2023-01-03T18:28:13.472Z,12.67
2023-01-03T18:30:40.410Z,12.68
2023-01-03T18:33:07.251Z,12.70
2023-01-03T18:35:37.978Z,12.73
2023-01-03T18:38:05.511Z,12.74
2023-01-03T18:40:32.517Z,12.74
2023-01-03T18:43:09.514Z,12.71
2023-01-03T18:45:37.281Z,12.69
2023-01-03T18:48:04.552Z,12.72
2023-01-03T18:50:31.672Z,12.69
2023-01-03T18:53:00.985Z,12.69
2023-01-03T18:55:30.406Z,12.71
2023-01-03T18:58:00.487Z,12.71
2023-01-03T19:00:27.352Z,12.76
2023-01-03T19:02:54.932Z,12.78
2023-01-03T19:05:22.116Z,12.79
2023-01-03T19:07:50.820Z,12.80
2023-01-03T19:10:27.590Z,12.83
2023-01-03T19:12:56.347Z,12.84
2023-01-03T19:15:23.543Z,12.84
2023-01-03T19:17:50.424Z,12.83
2023-01-03T19:20:20.658Z,12.86
2023-01-03T19:22:52.250Z,12.88
2023-01-03T19:25:28.696Z,12.91
2023-01-03T19:27:57.843Z,12.90
2023-01-03T19:30:36.965Z,12.88
2023-01-03T19:33:05.286Z,12.94
2023-01-03T19:35:32.085Z,12.95
2023-01-03T19:37:58.996Z,12.93
2023-01-03T19:40:28.683Z,12.93
2023-01-03T19:42:57.198Z,12.93
2023-01-03T19:45:33.508Z,12.96
2023-01-03T19:48:02.598Z,12.95
2023-01-03T19:50:31.551Z,12.95
2023-01-03T19:52:58.901Z,12.94
2023-01-03T19:55:27.887Z,12.94
2023-01-03T19:57:55.022Z,12.95
2023-01-03T20:00:25.099Z,12.94
2023-01-03T20:02:53.624Z,12.95
2023-01-03T20:05:23.190Z,12.94
2023-01-03T20:07:50.405Z,12.95
2023-01-03T20:10:21.369Z,12.97
2023-01-03T20:12:50.251Z,12.97
2023-01-03T20:15:26.639Z,12.99
2023-01-03T20:17:54.109Z,13.00
2023-01-03T20:20:21.959Z,13.00
2023-01-03T20:23:06.668Z,13.02
2023-01-03T20:25:35.463Z,13.07
2023-01-03T20:28:02.529Z,13.05
2023-01-03T20:30:30.604Z,13.08
2023-01-03T20:32:57.618Z,13.10
2023-01-03T20:38:12.934Z,13.15
2023-01-03T20:40:39.941Z,13.16
2023-01-03T20:43:06.876Z,13.17
2023-01-03T20:45:33.883Z,13.18
2023-01-03T20:48:00.799Z,13.16
2023-01-03T20:50:29.020Z,13.19
2023-01-03T20:52:57.538Z,13.22
2023-01-03T20:55:25.632Z,13.23
2023-01-03T20:57:52.568Z,13.24
2023-01-03T21:00:27.061Z,13.25
2023-01-03T21:02:54.163Z,13.26
2023-01-03T21:05:21.890Z,13.28
2023-01-03T21:07:58.443Z,13.32
2023-01-03T21:10:26.981Z,13.33
2023-01-03T21:12:54.229Z,13.35
2023-01-03T21:15:21.329Z,13.37
2023-01-03T21:17:51.009Z,13.44
2023-01-03T21:20:20.583Z,13.42
2023-01-03T21:22:47.773Z,13.45
2023-01-03T21:25:18.262Z,13.46
2023-01-03T21:27:45.202Z,13.49
2023-01-03T21:30:13.131Z,13.49
2023-01-03T21:32:40.281Z,13.50
2023-01-03T21:35:07.845Z,13.52
2023-01-03T21:37:34.907Z,13.51
2023-01-03T21:40:01.941Z,13.52
2023-01-03T21:42:38.392Z,13.55
2023-01-03T21:45:07.792Z,13.55
2023-01-03T21:47:34.706Z,13.58
2023-01-03T21:50:01.632Z,13.57
2023-01-03T21:52:28.487Z,13.59
2023-01-03T21:54:55.384Z,13.59
2023-01-03T21:57:23.570Z,13.59
2023-01-03T21:59:50.791Z,13.60
2023-01-03T22:02:27.476Z,13.63
2023-01-03T22:04:54.547Z,13.66
2023-01-03T22:07:21.486Z,13.66
2023-01-03T22:09:57.395Z,13.69
2023-01-03T22:12:24.280Z,13.72
2023-01-03T22:14:51.133Z,13.70
2023-01-03T22:17:18.079Z,13.71
2023-01-03T22:19:44.923Z,13.74
2023-01-03T22:22:11.912Z,13.73
2023-01-03T22:24:39.049Z,13.75
2023-01-03T22:27:05.929Z,13.77
2023-01-03T22:29:32.897Z,13.75
2023-01-03T22:31:59.916Z,13.75
2023-01-03T22:34:26.844Z,13.76
2023-01-03T22:36:53.698Z,13.78
2023-01-03T22:39:20.587Z,13.79
2023-01-03T22:42:22.545Z,13.82
2023-01-03T22:44:49.633Z,13.82
2023-01-03T22:47:16.771Z,13.83
2023-01-03T22:49:43.961Z,13.84
2023-01-03T22:52:11.053Z,13.85
2023-01-03T22:54:37.972Z,13.86
2023-01-03T22:57:05.515Z,13.86
2023-01-03T22:59:32.402Z,13.87
2023-01-03T23:01:59.409Z,13.86
2023-01-03T23:04:26.861Z,13.86
2023-01-03T23:06:54.369Z,13.85
2023-01-03T23:09:21.662Z,13.85
2023-01-03T23:11:58.348Z,13.89
2023-01-03T23:14:25.810Z,13.90
2023-01-03T23:16:53.583Z,13.89
2023-01-03T23:19:21.358Z,13.86
2023-01-03T23:21:48.285Z,13.84
2023-01-03T23:24:16.903Z,13.84
2023-01-03T23:26:43.862Z,13.84
2023-01-03T23:29:11.053Z,13.83
2023-01-03T23:31:38.006Z,13.83
2023-01-03T23:34:04.870Z,13.85
2023-01-03T23:36:31.682Z,13.84
2023-01-03T23:38:58.577Z,13.84
2023-01-03T23:41:25.484Z,13.83
2023-01-03T23:43:53.542Z,13.85
2023-01-03T23:46:24.607Z,13.83
2023-01-03T23:49:00.586Z,13.85
2023-01-03T23:51:28.208Z,13.85
2023-01-03T23:53:55.099Z,13.87
2023-01-03T23:56:23.440Z,13.88
2023-01-03T23:58:51.848Z,13.88
